sensor_id;sensor_type;location;lat;lon;timestamp;temperature;humidity
2855;DHT22;1435;49.472;10.940;2022-12-07T00:02:02;5.00;99.90
2855;DHT22;1435;49.472;10.940;2022-12-07T00:07:04;5.00;99.90
2855;DHT22;1435;49.472;10.940;2022-12-07T00:12:07;4.90;99.90
2855;DHT22;1435;49.472;10.940;2022-12-07T00:17:09;5.00;99.90
2855;DHT22;1435;49.472;10.940;2022-12-07T00:22:11;5.00;99.90
2855;DHT22;1435;49.472;10.940;2022-12-07T00:27:14;4.90;99.90
2855;DHT22;1435;49.472;10.940;2022-12-07T00:32:15;4.70;99.90
2855;DHT22;1435;49.472;10.940;2022-12-07T00:37:17;4.90;99.90
2855;DHT22;1435;49.472;10.940;2022-12-07T00:42:20;4.90;99.90
2855;DHT22;1435;49.472;10.940;2022-12-07T00:47:22;4.90;99.90
2855;DHT22;1435;49.472;10.940;2022-12-07T00:52:24;4.90;99.90
2855;DHT22;1435;49.472;10.940;2022-12-07T00:57:27;4.90;99.90
2855;DHT22;1435;49.472;10.940;2022-12-07T01:02:28;4.90;99.90
2855;DHT22;1435;49.472;10.940;2022-12-07T01:07:30;4.90;99.90
2855;DHT22;1435;49.472;10.940;2022-12-07T01:12:33;4.90;99.90
2855;DHT22;1435;49.472;10.940;2022-12-07T01:17:35;4.90;99.90
2855;DHT22;1435;49.472;10.940;2022-12-07T01:22:37;4.90;99.90
2855;DHT22;1435;49.472;10.940;2022-12-07T01:27:40;4.90;99.90
2855;DHT22;1435;49.472;10.940;2022-12-07T01:32:42;5.00;99.90
2855;DHT22;1435;49.472;10.940;2022-12-07T01:37:44;5.10;99.90
2855;DHT22;1435;49.472;10.940;2022-12-07T01:42:47;5.00;99.90
2855;DHT22;1435;49.472;10.940;2022-12-07T01:47:51;4.90;99.90
2855;DHT22;1435;49.472;10.940;2022-12-07T01:52:55;5.00;99.90
2855;DHT22;1435;49.472;10.940;2022-12-07T01:57:59;5.00;99.90
2855;DHT22;1435;49.472;10.940;2022-12-07T02:03:04;5.00;99.90
2855;DHT22;1435;49.472;10.940;2022-12-07T02:08:07;5.10;99.90
2855;DHT22;1435;49.472;10.940;2022-12-07T02:13:13;4.90;99.90
2855;DHT22;1435;49.472;10.940;2022-12-07T02:18:21;5.00;99.90
2855;DHT22;1435;49.472;10.940;2022-12-07T02:23:46;4.90;99.90
2855;DHT22;1435;49.472;10.940;2022-12-07T02:29:11;4.90;99.90
2855;DHT22;1435;49.472;10.940;2022-12-07T02:34:19;4.90;99.90
2855;DHT22;1435;49.472;10.940;2022-12-07T02:39:28;4.80;99.90
2855;DHT22;1435;49.472;10.940;2022-12-07T02:44:34;4.90;99.90
2855;DHT22;1435;49.472;10.940;2022-12-07T02:49:36;4.80;99.90
2855;DHT22;1435;49.472;10.940;2022-12-07T02:54:39;4.80;99.90
2855;DHT22;1435;49.472;10.940;2022-12-07T02:59:54;4.80;99.90
2855;DHT22;1435;49.472;10.940;2022-12-07T03:05:11;4.80;99.90
2855;DHT22;1435;49.472;10.940;2022-12-07T03:10:18;4.80;99.90
2855;DHT22;1435;49.472;10.940;2022-12-07T03:15:31;4.80;99.90
2855;DHT22;1435;49.472;10.940;2022-12-07T03:20:35;4.80;99.90
2855;DHT22;1435;49.472;10.940;2022-12-07T03:25:40;4.80;99.90
2855;DHT22;1435;49.472;10.940;2022-12-07T03:30:47;4.60;99.90
2855;DHT22;1435;49.472;10.940;2022-12-07T03:35:58;4.50;99.90
2855;DHT22;1435;49.472;10.940;2022-12-07T03:41:05;4.50;99.90
2855;DHT22;1435;49.472;10.940;2022-12-07T03:46:20;4.50;99.90
2855;DHT22;1435;49.472;10.940;2022-12-07T03:51:28;4.50;99.90
2855;DHT22;1435;49.472;10.940;2022-12-07T03:56:32;4.50;99.90
2855;DHT22;1435;49.472;10.940;2022-12-07T04:01:36;4.50;99.90
2855;DHT22;1435;49.472;10.940;2022-12-07T04:06:38;4.60;99.90
2855;DHT22;1435;49.472;10.940;2022-12-07T04:11:39;4.50;99.90
2855;DHT22;1435;49.472;10.940;2022-12-07T04:16:42;4.50;99.90
2855;DHT22;1435;49.472;10.940;2022-12-07T04:21:45;4.50;99.90
2855;DHT22;1435;49.472;10.940;2022-12-07T04:26:47;4.50;99.90
2855;DHT22;1435;49.472;10.940;2022-12-07T04:31:51;4.40;99.90
2855;DHT22;1435;49.472;10.940;2022-12-07T04:36:53;4.40;99.90
2855;DHT22;1435;49.472;10.940;2022-12-07T04:41:55;4.40;99.90
2855;DHT22;1435;49.472;10.940;2022-12-07T04:46:58;4.40;99.90
2855;DHT22;1435;49.472;10.940;2022-12-07T04:52:00;4.40;99.90
2855;DHT22;1435;49.472;10.940;2022-12-07T04:57:02;4.40;99.90
2855;DHT22;1435;49.472;10.940;2022-12-07T05:02:05;4.40;99.90
2855;DHT22;1435;49.472;10.940;2022-12-07T05:07:07;4.30;99.90
2855;DHT22;1435;49.472;10.940;2022-12-07T05:12:08;4.30;99.90
2855;DHT22;1435;49.472;10.940;2022-12-07T05:17:12;4.20;99.90
2855;DHT22;1435;49.472;10.940;2022-12-07T05:22:14;4.20;99.90
2855;DHT22;1435;49.472;10.940;2022-12-07T05:27:15;4.20;99.90
2855;DHT22;1435;49.472;10.940;2022-12-07T05:32:19;4.20;99.90
2855;DHT22;1435;49.472;10.940;2022-12-07T05:37:20;4.00;99.90
2855;DHT22;1435;49.472;10.940;2022-12-07T05:42:23;4.10;99.90
2855;DHT22;1435;49.472;10.940;2022-12-07T05:47:27;4.10;99.90
2855;DHT22;1435;49.472;10.940;2022-12-07T05:52:28;4.10;99.90
2855;DHT22;1435;49.472;10.940;2022-12-07T05:57:30;4.10;99.90
2855;DHT22;1435;49.472;10.940;2022-12-07T06:02:33;4.20;99.90
2855;DHT22;1435;49.472;10.940;2022-12-07T06:07:35;4.10;99.90
2855;DHT22;1435;49.472;10.940;2022-12-07T06:12:36;4.10;99.90
2855;DHT22;1435;49.472;10.940;2022-12-07T06:17:41;4.10;99.90
2855;DHT22;1435;49.472;10.940;2022-12-07T06:22:43;4.20;99.90
2855;DHT22;1435;49.472;10.940;2022-12-07T06:27:44;4.30;99.90
2855;DHT22;1435;49.472;10.940;2022-12-07T06:32:47;4.40;99.90
2855;DHT22;1435;49.472;10.940;2022-12-07T06:37:49;4.40;99.90
2855;DHT22;1435;49.472;10.940;2022-12-07T06:42:51;4.40;99.90
2855;DHT22;1435;49.472;10.940;2022-12-07T06:47:54;4.40;99.90
2855;DHT22;1435;49.472;10.940;2022-12-07T06:52:56;4.50;99.90
2855;DHT22;1435;49.472;10.940;2022-12-07T06:57:57;4.30;99.90
2855;DHT22;1435;49.472;10.940;2022-12-07T07:03:01;4.40;99.90
2855;DHT22;1435;49.472;10.940;2022-12-07T07:08:02;4.30;99.90
2855;DHT22;1435;49.472;10.940;2022-12-07T07:13:05;4.20;99.90
2855;DHT22;1435;49.472;10.940;2022-12-07T07:18:08;4.30;99.90
2855;DHT22;1435;49.472;10.940;2022-12-07T07:23:10;4.10;99.90
2855;DHT22;1435;49.472;10.940;2022-12-07T07:28:12;4.10;99.90
2855;DHT22;1435;49.472;10.940;2022-12-07T07:33:15;4.00;99.90
2855;DHT22;1435;49.472;10.940;2022-12-07T07:38:17;4.00;99.90
2855;DHT22;1435;49.472;10.940;2022-12-07T07:43:19;4.10;99.90
2855;DHT22;1435;49.472;10.940;2022-12-07T07:48:22;4.20;99.90
2855;DHT22;1435;49.472;10.940;2022-12-07T07:53:25;4.20;99.90
2855;DHT22;1435;49.472;10.940;2022-12-07T07:58:27;4.10;99.90
2855;DHT22;1435;49.472;10.940;2022-12-07T08:03:30;4.10;99.90
2855;DHT22;1435;49.472;10.940;2022-12-07T08:08:32;4.10;99.90
2855;DHT22;1435;49.472;10.940;2022-12-07T08:13:34;4.10;99.90
2855;DHT22;1435;49.472;10.940;2022-12-07T08:18:38;4.20;99.90
2855;DHT22;1435;49.472;10.940;2022-12-07T08:23:40;4.10;99.90
2855;DHT22;1435;49.472;10.940;2022-12-07T08:28:44;4.20;99.90
2855;DHT22;1435;49.472;10.940;2022-12-07T08:33:48;4.20;99.90
2855;DHT22;1435;49.472;10.940;2022-12-07T08:38:50;4.10;99.90
2855;DHT22;1435;49.472;10.940;2022-12-07T08:43:52;4.30;99.90
2855;DHT22;1435;49.472;10.940;2022-12-07T08:48:57;4.30;99.90
2855;DHT22;1435;49.472;10.940;2022-12-07T08:54:02;4.40;99.90
2855;DHT22;1435;49.472;10.940;2022-12-07T08:59:06;4.40;99.90
2855;DHT22;1435;49.472;10.940;2022-12-07T09:04:09;4.40;99.90
2855;DHT22;1435;49.472;10.940;2022-12-07T09:09:12;4.40;99.90
2855;DHT22;1435;49.472;10.940;2022-12-07T09:14:15;4.60;99.90
2855;DHT22;1435;49.472;10.940;2022-12-07T09:19:19;4.40;99.90
2855;DHT22;1435;49.472;10.940;2022-12-07T09:24:20;4.30;99.90
2855;DHT22;1435;49.472;10.940;2022-12-07T09:29:23;4.30;99.90
2855;DHT22;1435;49.472;10.940;2022-12-07T09:34:26;4.40;99.90
2855;DHT22;1435;49.472;10.940;2022-12-07T09:39:28;4.30;99.90
2855;DHT22;1435;49.472;10.940;2022-12-07T09:44:30;4.40;99.90
2855;DHT22;1435;49.472;10.940;2022-12-07T09:49:33;4.30;99.90
2855;DHT22;1435;49.472;10.940;2022-12-07T09:54:36;4.40;99.90
2855;DHT22;1435;49.472;10.940;2022-12-07T09:59:41;4.50;99.90
2855;DHT22;1435;49.472;10.940;2022-12-07T10:04:44;4.60;99.90
2855;DHT22;1435;49.472;10.940;2022-12-07T10:09:47;4.50;99.90
2855;DHT22;1435;49.472;10.940;2022-12-07T10:14:57;4.60;99.90
2855;DHT22;1435;49.472;10.940;2022-12-07T10:20:19;4.60;99.90
2855;DHT22;1435;49.472;10.940;2022-12-07T10:25:22;4.70;99.90
2855;DHT22;1435;49.472;10.940;2022-12-07T10:30:26;4.70;99.90
2855;DHT22;1435;49.472;10.940;2022-12-07T10:35:30;4.70;99.90
2855;DHT22;1435;49.472;10.940;2022-12-07T10:40:33;4.80;99.90
2855;DHT22;1435;49.472;10.940;2022-12-07T10:45:41;4.80;99.90
2855;DHT22;1435;49.472;10.940;2022-12-07T10:50:59;4.90;99.90
2855;DHT22;1435;49.472;10.940;2022-12-07T10:56:31;5.00;99.90
2855;DHT22;1435;49.472;10.940;2022-12-07T11:01:43;5.00;99.90
2855;DHT22;1435;49.472;10.940;2022-12-07T11:06:54;5.00;99.90
2855;DHT22;1435;49.472;10.940;2022-12-07T11:11:59;5.10;99.90
2855;DHT22;1435;49.472;10.940;2022-12-07T11:17:12;5.10;99.90
2855;DHT22;1435;49.472;10.940;2022-12-07T11:22:22;5.10;99.90
2855;DHT22;1435;49.472;10.940;2022-12-07T11:27:32;5.10;99.90
2855;DHT22;1435;49.472;10.940;2022-12-07T11:32:53;5.20;99.90
2855;DHT22;1435;49.472;10.940;2022-12-07T11:38:01;5.20;99.90
2855;DHT22;1435;49.472;10.940;2022-12-07T11:43:15;5.20;99.90
2855;DHT22;1435;49.472;10.940;2022-12-07T11:48:24;5.30;99.90
2855;DHT22;1435;49.472;10.940;2022-12-07T11:53:32;5.20;99.90
2855;DHT22;1435;49.472;10.940;2022-12-07T11:58:44;5.20;99.90
2855;DHT22;1435;49.472;10.940;2022-12-07T12:03:50;5.20;99.90
2855;DHT22;1435;49.472;10.940;2022-12-07T12:09:01;5.20;99.90
2855;DHT22;1435;49.472;10.940;2022-12-07T12:14:16;5.10;99.90
2855;DHT22;1435;49.472;10.940;2022-12-07T12:19:30;5.10;99.90
2855;DHT22;1435;49.472;10.940;2022-12-07T12:24:36;5.10;99.90
2855;DHT22;1435;49.472;10.940;2022-12-07T12:29:41;5.10;99.90
2855;DHT22;1435;49.472;10.940;2022-12-07T12:40:54;5.30;99.90
2855;DHT22;1435;49.472;10.940;2022-12-07T12:51:37;5.20;99.90
2855;DHT22;1435;49.472;10.940;2022-12-07T12:56:45;5.30;99.90
2855;DHT22;1435;49.472;10.940;2022-12-07T13:01:51;5.30;99.90
2855;DHT22;1435;49.472;10.940;2022-12-07T13:06:55;5.20;99.90
2855;DHT22;1435;49.472;10.940;2022-12-07T13:12:01;5.30;99.90
2855;DHT22;1435;49.472;10.940;2022-12-07T13:17:03;5.20;99.90
2855;DHT22;1435;49.472;10.940;2022-12-07T13:27:48;5.30;99.90
2855;DHT22;1435;49.472;10.940;2022-12-07T13:32:55;5.30;99.90
2855;DHT22;1435;49.472;10.940;2022-12-07T13:37:57;5.30;99.90
2855;DHT22;1435;49.472;10.940;2022-12-07T13:43:03;5.40;99.90
2855;DHT22;1435;49.472;10.940;2022-12-07T13:48:05;5.30;99.90
2855;DHT22;1435;49.472;10.940;2022-12-07T13:53:12;5.40;99.90
2855;DHT22;1435;49.472;10.940;2022-12-07T13:58:16;5.30;99.90
2855;DHT22;1435;49.472;10.940;2022-12-07T14:03:30;5.40;99.90
2855;DHT22;1435;49.472;10.940;2022-12-07T14:08:32;5.50;99.90
2855;DHT22;1435;49.472;10.940;2022-12-07T14:13:37;5.60;99.90
2855;DHT22;1435;49.472;10.940;2022-12-07T14:18:40;5.50;99.90
2855;DHT22;1435;49.472;10.940;2022-12-07T14:23:43;5.50;99.90
2855;DHT22;1435;49.472;10.940;2022-12-07T14:28:47;5.60;99.90
2855;DHT22;1435;49.472;10.940;2022-12-07T14:33:49;5.60;99.90
2855;DHT22;1435;49.472;10.940;2022-12-07T14:38:50;5.70;99.90
2855;DHT22;1435;49.472;10.940;2022-12-07T14:43:56;5.60;99.90
2855;DHT22;1435;49.472;10.940;2022-12-07T14:48:57;5.60;99.90
2855;DHT22;1435;49.472;10.940;2022-12-07T14:53:59;5.60;99.90
2855;DHT22;1435;49.472;10.940;2022-12-07T14:59:02;5.70;99.90
2855;DHT22;1435;49.472;10.940;2022-12-07T15:04:04;5.80;99.90
2855;DHT22;1435;49.472;10.940;2022-12-07T15:09:06;5.80;99.90
2855;DHT22;1435;49.472;10.940;2022-12-07T15:14:09;5.80;99.90
2855;DHT22;1435;49.472;10.940;2022-12-07T15:19:14;5.80;99.90
2855;DHT22;1435;49.472;10.940;2022-12-07T15:24:16;5.80;99.90
2855;DHT22;1435;49.472;10.940;2022-12-07T15:29:19;5.70;99.90
2855;DHT22;1435;49.472;10.940;2022-12-07T15:34:22;5.60;99.90
2855;DHT22;1435;49.472;10.940;2022-12-07T15:39:24;5.70;99.90
2855;DHT22;1435;49.472;10.940;2022-12-07T15:44:27;5.60;99.90
2855;DHT22;1435;49.472;10.940;2022-12-07T15:49:46;5.70;99.90
2855;DHT22;1435;49.472;10.940;2022-12-07T15:54:48;5.70;99.90
2855;DHT22;1435;49.472;10.940;2022-12-07T15:59:51;5.70;99.90
2855;DHT22;1435;49.472;10.940;2022-12-07T16:04:53;5.60;99.90
2855;DHT22;1435;49.472;10.940;2022-12-07T16:09:54;5.60;99.90
2855;DHT22;1435;49.472;10.940;2022-12-07T16:14:57;5.70;99.90
2855;DHT22;1435;49.472;10.940;2022-12-07T16:20:00;5.70;99.90
2855;DHT22;1435;49.472;10.940;2022-12-07T16:25:02;5.50;99.90
2855;DHT22;1435;49.472;10.940;2022-12-07T16:30:07;5.60;99.90
2855;DHT22;1435;49.472;10.940;2022-12-07T16:35:09;5.60;99.90
2855;DHT22;1435;49.472;10.940;2022-12-07T16:40:12;5.60;99.90
2855;DHT22;1435;49.472;10.940;2022-12-07T16:45:15;5.70;99.90
2855;DHT22;1435;49.472;10.940;2022-12-07T16:50:17;5.70;99.90
2855;DHT22;1435;49.472;10.940;2022-12-07T16:55:19;5.60;99.90
2855;DHT22;1435;49.472;10.940;2022-12-07T17:00:22;5.60;99.90
2855;DHT22;1435;49.472;10.940;2022-12-07T17:05:24;5.50;99.90
2855;DHT22;1435;49.472;10.940;2022-12-07T17:10:28;5.60;99.90
2855;DHT22;1435;49.472;10.940;2022-12-07T17:15:31;5.60;99.90
2855;DHT22;1435;49.472;10.940;2022-12-07T17:20:33;5.60;99.90
2855;DHT22;1435;49.472;10.940;2022-12-07T17:25:34;5.60;99.90
2855;DHT22;1435;49.472;10.940;2022-12-07T17:30:38;5.60;99.90
2855;DHT22;1435;49.472;10.940;2022-12-07T17:35:40;5.50;99.90
2855;DHT22;1435;49.472;10.940;2022-12-07T17:40:42;5.50;99.90
2855;DHT22;1435;49.472;10.940;2022-12-07T17:45:45;5.40;99.90
2855;DHT22;1435;49.472;10.940;2022-12-07T17:50:47;5.40;99.90
2855;DHT22;1435;49.472;10.940;2022-12-07T17:56:06;5.30;99.90
2855;DHT22;1435;49.472;10.940;2022-12-07T18:01:10;5.20;99.90
2855;DHT22;1435;49.472;10.940;2022-12-07T18:06:12;5.20;99.90
2855;DHT22;1435;49.472;10.940;2022-12-07T18:11:13;5.30;99.90
2855;DHT22;1435;49.472;10.940;2022-12-07T18:16:18;5.20;99.90
2855;DHT22;1435;49.472;10.940;2022-12-07T18:21:22;5.30;99.90
2855;DHT22;1435;49.472;10.940;2022-12-07T18:26:25;5.30;99.90
2855;DHT22;1435;49.472;10.940;2022-12-07T18:31:28;5.20;99.90
2855;DHT22;1435;49.472;10.940;2022-12-07T18:36:30;5.20;99.90
2855;DHT22;1435;49.472;10.940;2022-12-07T18:41:32;5.10;99.90
2855;DHT22;1435;49.472;10.940;2022-12-07T18:46:35;5.10;99.90
2855;DHT22;1435;49.472;10.940;2022-12-07T18:51:37;4.90;99.90
2855;DHT22;1435;49.472;10.940;2022-12-07T18:56:39;4.90;99.90
2855;DHT22;1435;49.472;10.940;2022-12-07T19:01:45;4.90;99.90
2855;DHT22;1435;49.472;10.940;2022-12-07T19:06:48;4.90;99.90
2855;DHT22;1435;49.472;10.940;2022-12-07T19:11:50;4.80;99.90
2855;DHT22;1435;49.472;10.940;2022-12-07T19:16:54;4.80;99.90
2855;DHT22;1435;49.472;10.940;2022-12-07T19:21:56;4.70;99.90
2855;DHT22;1435;49.472;10.940;2022-12-07T19:26:58;4.80;99.90
2855;DHT22;1435;49.472;10.940;2022-12-07T19:32:03;4.80;99.90
2855;DHT22;1435;49.472;10.940;2022-12-07T19:37:08;4.90;99.90
2855;DHT22;1435;49.472;10.940;2022-12-07T19:42:11;5.00;99.90
2855;DHT22;1435;49.472;10.940;2022-12-07T19:47:14;5.00;99.90
2855;DHT22;1435;49.472;10.940;2022-12-07T19:52:17;4.90;99.90
2855;DHT22;1435;49.472;10.940;2022-12-07T19:57:18;4.90;99.90
2855;DHT22;1435;49.472;10.940;2022-12-07T20:02:21;5.00;99.90
2855;DHT22;1435;49.472;10.940;2022-12-07T20:07:23;4.90;99.90
2855;DHT22;1435;49.472;10.940;2022-12-07T20:12:25;4.90;99.90
2855;DHT22;1435;49.472;10.940;2022-12-07T20:17:45;5.00;99.90
2855;DHT22;1435;49.472;10.940;2022-12-07T20:22:47;5.00;99.90
2855;DHT22;1435;49.472;10.940;2022-12-07T20:27:49;5.00;99.90
2855;DHT22;1435;49.472;10.940;2022-12-07T20:32:52;5.10;99.90
2855;DHT22;1435;49.472;10.940;2022-12-07T20:37:54;5.10;99.90
2855;DHT22;1435;49.472;10.940;2022-12-07T20:42:56;4.90;99.90
2855;DHT22;1435;49.472;10.940;2022-12-07T20:47:59;4.90;99.90
2855;DHT22;1435;49.472;10.940;2022-12-07T20:53:00;4.90;99.90
2855;DHT22;1435;49.472;10.940;2022-12-07T20:58:02;5.00;99.90
2855;DHT22;1435;49.472;10.940;2022-12-07T21:03:05;4.80;99.90
2855;DHT22;1435;49.472;10.940;2022-12-07T21:08:07;4.80;99.90
2855;DHT22;1435;49.472;10.940;2022-12-07T21:13:09;4.80;99.90
2855;DHT22;1435;49.472;10.940;2022-12-07T21:18:12;4.80;99.90
2855;DHT22;1435;49.472;10.940;2022-12-07T21:23:13;4.80;99.90
2855;DHT22;1435;49.472;10.940;2022-12-07T21:28:15;4.80;99.90
2855;DHT22;1435;49.472;10.940;2022-12-07T21:33:18;4.90;99.90
2855;DHT22;1435;49.472;10.940;2022-12-07T21:38:20;4.90;99.90
2855;DHT22;1435;49.472;10.940;2022-12-07T21:43:22;5.00;99.90
2855;DHT22;1435;49.472;10.940;2022-12-07T21:48:25;4.90;99.90
2855;DHT22;1435;49.472;10.940;2022-12-07T21:53:27;4.80;99.90
2855;DHT22;1435;49.472;10.940;2022-12-07T21:58:29;4.70;99.90
2855;DHT22;1435;49.472;10.940;2022-12-07T22:03:32;4.80;99.90
2855;DHT22;1435;49.472;10.940;2022-12-07T22:08:33;4.70;99.90
2855;DHT22;1435;49.472;10.940;2022-12-07T22:13:36;4.80;99.90
2855;DHT22;1435;49.472;10.940;2022-12-07T22:18:56;4.80;99.90
2855;DHT22;1435;49.472;10.940;2022-12-07T22:23:58;4.90;99.90
2855;DHT22;1435;49.472;10.940;2022-12-07T22:29:00;4.80;99.90
2855;DHT22;1435;49.472;10.940;2022-12-07T22:34:03;4.90;99.90
2855;DHT22;1435;49.472;10.940;2022-12-07T22:39:05;5.00;99.90
2855;DHT22;1435;49.472;10.940;2022-12-07T22:44:07;5.00;99.90
2855;DHT22;1435;49.472;10.940;2022-12-07T22:49:11;5.00;99.90
2855;DHT22;1435;49.472;10.940;2022-12-07T22:54:14;5.00;99.90
2855;DHT22;1435;49.472;10.940;2022-12-07T22:59:16;4.90;99.90
2855;DHT22;1435;49.472;10.940;2022-12-07T23:04:19;5.00;99.90
2855;DHT22;1435;49.472;10.940;2022-12-07T23:09:21;5.00;99.90
2855;DHT22;1435;49.472;10.940;2022-12-07T23:14:26;5.00;99.90
2855;DHT22;1435;49.472;10.940;2022-12-07T23:19:30;4.80;99.90
2855;DHT22;1435;49.472;10.940;2022-12-07T23:24:31;4.70;99.90
2855;DHT22;1435;49.472;10.940;2022-12-07T23:29:33;4.80;99.90
2855;DHT22;1435;49.472;10.940;2022-12-07T23:34:37;4.80;99.90
2855;DHT22;1435;49.472;10.940;2022-12-07T23:39:38;4.80;99.90
2855;DHT22;1435;49.472;10.940;2022-12-07T23:44:40;4.80;99.90
2855;DHT22;1435;49.472;10.940;2022-12-07T23:49:43;4.80;99.90
2855;DHT22;1435;49.472;10.940;2022-12-07T23:54:45;4.80;99.90
2855;DHT22;1435;49.472;10.940;2022-12-07T23:59:47;4.80;99.90
